Terminal Aerodrome Forecast
Issued by NWS Caribou, ME

Home | Current Version | Previous Version | Text Only | Print | Product List | Glossary On
Versions: 1 2 3 4 5 6 7 8 9 10 11 12 13 14 15 16 17 18
486
FTUS41 KCAR 200520
TAFBGR
TAF
KBGR 200520Z 2006/2106 16003KT P6SM FEW035 OVC100
     FM200900 22004KT 4SM -RA BR OVC008
     FM201800 VRB03KT 6SM -DZ OVC012
     FM210000 09004KT 2SM -RA BR OVC005=

USA.gov is the U.S. government's official web portal to all federal, state and local government web resources and services.